XKY weather

Kaya Airport
Kaya, Sanmatenga, Burkina Faso

Public forecast

Using degrees Celsius for public forecast. Weather courtesy of forecast.io.

Closest aviation weather report (METAR) to Kaya Airport

Closest report is Ouagadougou Airport, 49.2 nm (91.1 km) SSW. Retrieved 2020/06/06 23:00 UTC (40 minutes ago):

DFFD 062300Z 25006KT CAVOK 30/22 Q1015 NOSIG

Closest aviation forecast (TAF) to Kaya Airport

Closest forecast is Ouagadougou Airport, 49.2 nm (91.1 km) SSW. Retrieved 2020/06/06 18:06 UTC (6 hours ago):

TAF DFFD 061700Z 0618/0724 20008KT 9999 FEW026 PROB30 TEMPO 0620/0702 TS SCT026 FEW036CB TEMPO 0715/0724 4000 TSRA SCT026 FEW036CB